sensor_id;sensor_type;location;lat;lon;timestamp;pressure;altitude;pressure_sealevel;temperature;humidity
78841;BME280;68379;47.190;27.558;2023-08-20T00:01:58;100117.03;;;22.91;47.98
78841;BME280;68379;47.190;27.558;2023-08-20T00:04:35;100120.16;;;22.88;48.03
78841;BME280;68379;47.190;27.558;2023-08-20T00:07:09;100119.50;;;22.83;48.28
78841;BME280;68379;47.190;27.558;2023-08-20T00:09:40;100116.31;;;22.78;48.52
78841;BME280;68379;47.190;27.558;2023-08-20T00:12:12;100114.13;;;22.72;48.88
78841;BME280;68379;47.190;27.558;2023-08-20T00:14:57;100110.64;;;22.65;48.95
78841;BME280;68379;47.190;27.558;2023-08-20T00:17:36;100113.65;;;22.57;49.18
78841;BME280;68379;47.190;27.558;2023-08-20T00:20:11;100116.30;;;22.49;49.60
78841;BME280;68379;47.190;27.558;2023-08-20T00:22:44;100112.09;;;22.41;49.60
78841;BME280;68379;47.190;27.558;2023-08-20T00:25:18;100108.79;;;22.31;49.68
78841;BME280;68379;47.190;27.558;2023-08-20T00:27:50;100105.87;;;22.23;49.98
78841;BME280;68379;47.190;27.558;2023-08-20T00:30:23;100104.91;;;22.17;50.19
78841;BME280;68379;47.190;27.558;2023-08-20T00:32:54;100100.27;;;22.12;50.41
78841;BME280;68379;47.190;27.558;2023-08-20T00:35:26;100100.27;;;22.08;50.54
78841;BME280;68379;47.190;27.558;2023-08-20T00:37:58;100094.92;;;22.03;50.64
78841;BME280;68379;47.190;27.558;2023-08-20T00:40:30;100093.02;;;22.00;50.73
78841;BME280;68379;47.190;27.558;2023-08-20T00:43:02;100093.57;;;21.98;50.91
78841;BME280;68379;47.190;27.558;2023-08-20T00:45:35;100096.51;;;21.95;50.86
78841;BME280;68379;47.190;27.558;2023-08-20T00:48:08;100100.70;;;21.92;51.07
78841;BME280;68379;47.190;27.558;2023-08-20T00:50:42;100099.19;;;21.88;51.21
78841;BME280;68379;47.190;27.558;2023-08-20T00:53:14;100100.65;;;21.86;51.33
78841;BME280;68379;47.190;27.558;2023-08-20T00:55:46;100099.16;;;21.82;51.51
78841;BME280;68379;47.190;27.558;2023-08-20T00:58:18;100102.73;;;21.78;51.75
78841;BME280;68379;47.190;27.558;2023-08-20T01:00:50;100103.13;;;21.76;51.86
78841;BME280;68379;47.190;27.558;2023-08-20T01:03:22;100100.04;;;21.72;51.81
78841;BME280;68379;47.190;27.558;2023-08-20T01:05:58;100099.69;;;21.68;51.74
78841;BME280;68379;47.190;27.558;2023-08-20T01:08:37;100095.23;;;21.65;52.11
78841;BME280;68379;47.190;27.558;2023-08-20T01:11:16;100094.52;;;21.62;52.25
78841;BME280;68379;47.190;27.558;2023-08-20T01:13:49;100094.77;;;21.59;52.11
78841;BME280;68379;47.190;27.558;2023-08-20T01:16:21;100094.18;;;21.57;52.35
78841;BME280;68379;47.190;27.558;2023-08-20T01:18:53;100091.19;;;21.54;52.36
78841;BME280;68379;47.190;27.558;2023-08-20T01:21:35;100086.34;;;21.52;52.30
78841;BME280;68379;47.190;27.558;2023-08-20T01:24:20;100088.69;;;21.52;52.87
78841;BME280;68379;47.190;27.558;2023-08-20T01:27:06;100086.84;;;21.48;53.28
78841;BME280;68379;47.190;27.558;2023-08-20T01:29:41;100089.83;;;21.45;53.24
78841;BME280;68379;47.190;27.558;2023-08-20T01:32:11;100088.21;;;21.42;53.42
78841;BME280;68379;47.190;27.558;2023-08-20T01:34:44;100089.19;;;21.39;53.59
78841;BME280;68379;47.190;27.558;2023-08-20T01:37:18;100088.79;;;21.37;53.62
78841;BME280;68379;47.190;27.558;2023-08-20T01:39:50;100090.95;;;21.32;53.81
78841;BME280;68379;47.190;27.558;2023-08-20T01:42:21;100095.52;;;21.25;54.13
78841;BME280;68379;47.190;27.558;2023-08-20T01:44:53;100095.17;;;21.13;54.45
78841;BME280;68379;47.190;27.558;2023-08-20T01:47:25;100092.84;;;21.00;54.71
78841;BME280;68379;47.190;27.558;2023-08-20T01:49:57;100099.04;;;20.87;55.20
78841;BME280;68379;47.190;27.558;2023-08-20T01:52:29;100102.26;;;20.75;55.55
78841;BME280;68379;47.190;27.558;2023-08-20T01:55:01;100097.51;;;20.67;55.65
78841;BME280;68379;47.190;27.558;2023-08-20T01:57:33;100096.35;;;20.64;55.90
78841;BME280;68379;47.190;27.558;2023-08-20T02:00:07;100095.48;;;20.61;55.96
78841;BME280;68379;47.190;27.558;2023-08-20T02:02:39;100093.50;;;20.59;56.47
78841;BME280;68379;47.190;27.558;2023-08-20T02:05:11;100099.34;;;20.58;56.70
78841;BME280;68379;47.190;27.558;2023-08-20T02:07:43;100099.96;;;20.56;56.80
78841;BME280;68379;47.190;27.558;2023-08-20T02:10:15;100103.24;;;20.55;56.67
78841;BME280;68379;47.190;27.558;2023-08-20T02:12:46;100100.98;;;20.54;56.74
78841;BME280;68379;47.190;27.558;2023-08-20T02:15:18;100098.89;;;20.56;56.81
78841;BME280;68379;47.190;27.558;2023-08-20T02:17:50;100097.54;;;20.58;57.19
78841;BME280;68379;47.190;27.558;2023-08-20T02:20:22;100099.34;;;20.57;57.49
78841;BME280;68379;47.190;27.558;2023-08-20T02:22:54;100101.45;;;20.56;57.42
78841;BME280;68379;47.190;27.558;2023-08-20T02:25:26;100097.92;;;20.54;57.75
78841;BME280;68379;47.190;27.558;2023-08-20T02:27:58;100102.95;;;20.54;57.82
78841;BME280;68379;47.190;27.558;2023-08-20T02:30:30;100105.98;;;20.53;57.77
78841;BME280;68379;47.190;27.558;2023-08-20T02:33:02;100105.73;;;20.49;58.13
78841;BME280;68379;47.190;27.558;2023-08-20T02:35:34;100106.84;;;20.48;58.23
78841;BME280;68379;47.190;27.558;2023-08-20T02:38:06;100108.84;;;20.48;58.41
78841;BME280;68379;47.190;27.558;2023-08-20T02:40:43;100116.47;;;20.47;58.58
78841;BME280;68379;47.190;27.558;2023-08-20T02:43:14;100113.94;;;20.45;58.72
78841;BME280;68379;47.190;27.558;2023-08-20T02:45:46;100114.69;;;20.44;58.75
78841;BME280;68379;47.190;27.558;2023-08-20T02:48:19;100117.38;;;20.42;58.76
78841;BME280;68379;47.190;27.558;2023-08-20T02:50:51;100123.91;;;20.39;58.66
78841;BME280;68379;47.190;27.558;2023-08-20T02:53:22;100128.09;;;20.33;58.91
78841;BME280;68379;47.190;27.558;2023-08-20T02:55:54;100121.07;;;20.31;59.31
78841;BME280;68379;47.190;27.558;2023-08-20T02:58:26;100121.00;;;20.30;59.52
78841;BME280;68379;47.190;27.558;2023-08-20T03:00:58;100122.55;;;20.28;59.92
78841;BME280;68379;47.190;27.558;2023-08-20T03:03:30;100121.35;;;20.22;60.13
78841;BME280;68379;47.190;27.558;2023-08-20T03:06:02;100121.09;;;20.14;60.79
78841;BME280;68379;47.190;27.558;2023-08-20T03:08:34;100120.96;;;20.06;60.95
78841;BME280;68379;47.190;27.558;2023-08-20T03:11:06;100119.73;;;20.01;61.03
78841;BME280;68379;47.190;27.558;2023-08-20T03:13:38;100116.17;;;19.98;61.15
78841;BME280;68379;47.190;27.558;2023-08-20T03:16:10;100117.66;;;19.98;61.24
78841;BME280;68379;47.190;27.558;2023-08-20T03:18:41;100121.35;;;19.99;61.24
78841;BME280;68379;47.190;27.558;2023-08-20T03:21:13;100124.52;;;20.00;61.33
78841;BME280;68379;47.190;27.558;2023-08-20T03:23:45;100127.89;;;20.00;61.33
78841;BME280;68379;47.190;27.558;2023-08-20T03:26:17;100124.48;;;19.98;61.55
78841;BME280;68379;47.190;27.558;2023-08-20T03:28:49;100121.42;;;19.95;61.82
78841;BME280;68379;47.190;27.558;2023-08-20T03:31:22;100123.17;;;19.93;62.27
78841;BME280;68379;47.190;27.558;2023-08-20T03:33:54;100125.89;;;19.90;62.64
78841;BME280;68379;47.190;27.558;2023-08-20T03:36:26;100128.41;;;19.88;62.67
78841;BME280;68379;47.190;27.558;2023-08-20T03:38:57;100128.23;;;19.87;62.49
78841;BME280;68379;47.190;27.558;2023-08-20T03:41:30;100124.84;;;19.90;62.48
78841;BME280;68379;47.190;27.558;2023-08-20T03:44:02;100120.34;;;19.92;62.61
78841;BME280;68379;47.190;27.558;2023-08-20T03:46:34;100124.75;;;19.93;62.56
78841;BME280;68379;47.190;27.558;2023-08-20T03:49:06;100125.27;;;19.94;62.37
78841;BME280;68379;47.190;27.558;2023-08-20T03:51:38;100124.69;;;19.94;62.43
78841;BME280;68379;47.190;27.558;2023-08-20T03:54:11;100128.34;;;19.96;62.35
78841;BME280;68379;47.190;27.558;2023-08-20T03:56:43;100126.92;;;19.98;62.29
78841;BME280;68379;47.190;27.558;2023-08-20T03:59:15;100128.64;;;20.02;62.27
78841;BME280;68379;47.190;27.558;2023-08-20T04:01:47;100125.84;;;20.08;62.17
78841;BME280;68379;47.190;27.558;2023-08-20T04:04:20;100128.55;;;20.15;62.03
78841;BME280;68379;47.190;27.558;2023-08-20T04:06:52;100127.89;;;20.21;62.03
78841;BME280;68379;47.190;27.558;2023-08-20T04:09:24;100128.16;;;20.27;62.06
78841;BME280;68379;47.190;27.558;2023-08-20T04:11:56;100128.96;;;20.31;62.14
78841;BME280;68379;47.190;27.558;2023-08-20T04:14:28;100128.67;;;20.32;62.28
78841;BME280;68379;47.190;27.558;2023-08-20T04:17:00;100134.79;;;20.34;61.96
78841;BME280;68379;47.190;27.558;2023-08-20T04:19:32;100138.73;;;20.37;62.26
78841;BME280;68379;47.190;27.558;2023-08-20T04:22:04;100141.60;;;20.37;62.40
78841;BME280;68379;47.190;27.558;2023-08-20T04:24:36;100138.09;;;20.34;62.82
78841;BME280;68379;47.190;27.558;2023-08-20T04:27:08;100137.55;;;20.34;62.79
78841;BME280;68379;47.190;27.558;2023-08-20T04:29:40;100132.36;;;20.33;63.21
78841;BME280;68379;47.190;27.558;2023-08-20T04:32:12;100135.27;;;20.33;63.01
78841;BME280;68379;47.190;27.558;2023-08-20T04:34:44;100134.87;;;20.34;63.13
78841;BME280;68379;47.190;27.558;2023-08-20T04:37:18;100135.67;;;20.35;63.49
78841;BME280;68379;47.190;27.558;2023-08-20T04:39:50;100137.11;;;20.37;63.69
78841;BME280;68379;47.190;27.558;2023-08-20T04:42:22;100138.98;;;20.39;63.92
78841;BME280;68379;47.190;27.558;2023-08-20T04:44:54;100138.41;;;20.42;63.72
78841;BME280;68379;47.190;27.558;2023-08-20T04:47:26;100143.16;;;20.43;63.68
78841;BME280;68379;47.190;27.558;2023-08-20T04:49:58;100143.30;;;20.46;63.80
78841;BME280;68379;47.190;27.558;2023-08-20T04:52:29;100145.26;;;20.46;64.06
78841;BME280;68379;47.190;27.558;2023-08-20T04:55:01;100145.85;;;20.45;63.72
78841;BME280;68379;47.190;27.558;2023-08-20T04:57:37;100141.77;;;20.49;64.40
78841;BME280;68379;47.190;27.558;2023-08-20T05:00:11;100144.80;;;20.54;63.97
78841;BME280;68379;47.190;27.558;2023-08-20T05:02:43;100139.77;;;20.62;64.22
78841;BME280;68379;47.190;27.558;2023-08-20T05:05:15;100141.39;;;20.66;64.43
78841;BME280;68379;47.190;27.558;2023-08-20T05:07:46;100142.48;;;20.73;64.15
78841;BME280;68379;47.190;27.558;2023-08-20T05:10:19;100144.39;;;20.84;63.90
78841;BME280;68379;47.190;27.558;2023-08-20T05:12:50;100142.21;;;20.95;63.59
78841;BME280;68379;47.190;27.558;2023-08-20T05:15:22;100146.10;;;21.07;63.70
78841;BME280;68379;47.190;27.558;2023-08-20T05:17:54;100140.63;;;21.20;63.49
78841;BME280;68379;47.190;27.558;2023-08-20T05:20:26;100141.13;;;21.34;63.36
78841;BME280;68379;47.190;27.558;2023-08-20T05:22:58;100144.88;;;21.48;62.95
78841;BME280;68379;47.190;27.558;2023-08-20T05:25:30;100148.45;;;21.62;62.88
78841;BME280;68379;47.190;27.558;2023-08-20T05:28:02;100149.58;;;21.73;62.66
78841;BME280;68379;47.190;27.558;2023-08-20T05:30:34;100150.23;;;21.84;62.35
78841;BME280;68379;47.190;27.558;2023-08-20T05:33:06;100150.13;;;21.90;62.31
78841;BME280;68379;47.190;27.558;2023-08-20T05:35:38;100149.14;;;21.96;62.32
78841;BME280;68379;47.190;27.558;2023-08-20T05:38:10;100149.42;;;22.03;62.12
78841;BME280;68379;47.190;27.558;2023-08-20T05:40:42;100145.08;;;22.12;62.07
78841;BME280;68379;47.190;27.558;2023-08-20T05:43:13;100141.11;;;22.19;61.95
78841;BME280;68379;47.190;27.558;2023-08-20T05:45:45;100142.91;;;22.26;61.95
78841;BME280;68379;47.190;27.558;2023-08-20T05:48:17;100145.13;;;22.36;61.63
78841;BME280;68379;47.190;27.558;2023-08-20T05:50:49;100151.54;;;22.52;61.42
78841;BME280;68379;47.190;27.558;2023-08-20T05:53:21;100145.79;;;22.69;61.11
78841;BME280;68379;47.190;27.558;2023-08-20T05:55:53;100149.97;;;22.83;60.66
78841;BME280;68379;47.190;27.558;2023-08-20T05:58:25;100148.70;;;22.89;60.53
78841;BME280;68379;47.190;27.558;2023-08-20T06:00:57;100152.46;;;23.00;60.46
78841;BME280;68379;47.190;27.558;2023-08-20T06:03:29;100157.41;;;23.18;60.19
78841;BME280;68379;47.190;27.558;2023-08-20T06:06:01;100158.94;;;23.34;59.82
78841;BME280;68379;47.190;27.558;2023-08-20T06:08:33;100154.48;;;23.47;59.66
78841;BME280;68379;47.190;27.558;2023-08-20T06:11:05;100149.52;;;23.61;59.48
78841;BME280;68379;47.190;27.558;2023-08-20T06:13:36;100149.29;;;23.74;58.92
78841;BME280;68379;47.190;27.558;2023-08-20T06:16:08;100147.00;;;23.83;58.57
78841;BME280;68379;47.190;27.558;2023-08-20T06:18:40;100152.75;;;23.91;58.67
78841;BME280;68379;47.190;27.558;2023-08-20T06:21:12;100153.00;;;24.02;58.47
78841;BME280;68379;47.190;27.558;2023-08-20T06:23:44;100154.73;;;24.17;58.32
78841;BME280;68379;47.190;27.558;2023-08-20T06:26:16;100153.44;;;24.35;58.20
78841;BME280;68379;47.190;27.558;2023-08-20T06:28:49;100152.58;;;24.52;57.85
78841;BME280;68379;47.190;27.558;2023-08-20T06:31:21;100148.66;;;24.70;57.68
78841;BME280;68379;47.190;27.558;2023-08-20T06:33:53;100148.48;;;24.81;56.87
78841;BME280;68379;47.190;27.558;2023-08-20T06:36:25;100145.77;;;24.91;56.99
78841;BME280;68379;47.190;27.558;2023-08-20T06:38:57;100148.52;;;25.06;56.50
78841;BME280;68379;47.190;27.558;2023-08-20T06:41:29;100151.61;;;25.17;55.82
78841;BME280;68379;47.190;27.558;2023-08-20T06:44:01;100146.09;;;25.29;56.05
78841;BME280;68379;47.190;27.558;2023-08-20T06:46:33;100147.40;;;25.42;55.68
78841;BME280;68379;47.190;27.558;2023-08-20T06:49:05;100147.80;;;25.57;55.33
78841;BME280;68379;47.190;27.558;2023-08-20T06:51:37;100145.98;;;25.71;55.03
78841;BME280;68379;47.190;27.558;2023-08-20T06:54:09;100145.68;;;25.89;54.83
78841;BME280;68379;47.190;27.558;2023-08-20T06:56:41;100146.91;;;26.01;54.03
78841;BME280;68379;47.190;27.558;2023-08-20T06:59:13;100147.09;;;26.12;54.16
78841;BME280;68379;47.190;27.558;2023-08-20T07:01:45;100143.96;;;26.29;53.85
78841;BME280;68379;47.190;27.558;2023-08-20T07:04:17;100144.89;;;26.46;53.54
78841;BME280;68379;47.190;27.558;2023-08-20T07:06:49;100149.83;;;26.60;52.97
78841;BME280;68379;47.190;27.558;2023-08-20T07:09:20;100150.69;;;26.73;52.50
78841;BME280;68379;47.190;27.558;2023-08-20T07:11:52;100154.23;;;26.84;51.95
78841;BME280;68379;47.190;27.558;2023-08-20T07:14:23;100152.16;;;27.01;51.75
78841;BME280;68379;47.190;27.558;2023-08-20T07:16:55;100151.77;;;27.21;51.62
78841;BME280;68379;47.190;27.558;2023-08-20T07:19:27;100151.94;;;27.35;50.86
78841;BME280;68379;47.190;27.558;2023-08-20T07:21:59;100152.06;;;27.44;50.65
78841;BME280;68379;47.190;27.558;2023-08-20T07:24:31;100150.57;;;27.58;50.20
78841;BME280;68379;47.190;27.558;2023-08-20T07:27:05;100149.05;;;27.71;49.58
78841;BME280;68379;47.190;27.558;2023-08-20T07:29:42;100145.05;;;27.87;49.64
78841;BME280;68379;47.190;27.558;2023-08-20T07:32:14;100148.23;;;28.01;48.90
78841;BME280;68379;47.190;27.558;2023-08-20T07:34:46;100147.11;;;28.16;48.75
78841;BME280;68379;47.190;27.558;2023-08-20T07:37:18;100143.27;;;28.36;48.96
78841;BME280;68379;47.190;27.558;2023-08-20T07:39:50;100143.16;;;28.54;48.45
78841;BME280;68379;47.190;27.558;2023-08-20T07:42:22;100141.30;;;28.68;48.18
78841;BME280;68379;47.190;27.558;2023-08-20T07:44:53;100141.34;;;28.81;47.32
78841;BME280;68379;47.190;27.558;2023-08-20T07:47:25;100134.75;;;28.91;47.33
78841;BME280;68379;47.190;27.558;2023-08-20T07:49:59;100136.17;;;29.04;47.77
78841;BME280;68379;47.190;27.558;2023-08-20T07:52:31;100136.46;;;29.19;46.97
78841;BME280;68379;47.190;27.558;2023-08-20T07:55:03;100136.73;;;29.28;46.22
78841;BME280;68379;47.190;27.558;2023-08-20T07:57:35;100131.88;;;29.37;46.01
78841;BME280;68379;47.190;27.558;2023-08-20T08:00:08;100127.20;;;29.49;45.79
78841;BME280;68379;47.190;27.558;2023-08-20T08:02:40;100128.98;;;29.63;45.10
78841;BME280;68379;47.190;27.558;2023-08-20T08:05:12;100131.61;;;29.71;44.38
78841;BME280;68379;47.190;27.558;2023-08-20T08:07:44;100127.90;;;29.77;44.47
78841;BME280;68379;47.190;27.558;2023-08-20T08:10:16;100127.52;;;29.79;44.41
78841;BME280;68379;47.190;27.558;2023-08-20T08:12:48;100128.59;;;29.82;43.51
78841;BME280;68379;47.190;27.558;2023-08-20T08:15:20;100126.50;;;29.92;43.12
78841;BME280;68379;47.190;27.558;2023-08-20T08:17:52;100127.61;;;30.06;42.81
78841;BME280;68379;47.190;27.558;2023-08-20T08:20:24;100129.20;;;30.19;42.71
78841;BME280;68379;47.190;27.558;2023-08-20T08:22:55;100129.15;;;30.35;42.74
78841;BME280;68379;47.190;27.558;2023-08-20T08:25:27;100130.53;;;30.51;42.71
78841;BME280;68379;47.190;27.558;2023-08-20T08:27:59;100134.19;;;30.67;42.23
78841;BME280;68379;47.190;27.558;2023-08-20T08:30:30;100130.48;;;30.77;41.64
78841;BME280;68379;47.190;27.558;2023-08-20T08:33:02;100129.21;;;30.93;41.85
78841;BME280;68379;47.190;27.558;2023-08-20T08:35:34;100127.40;;;31.13;41.21
78841;BME280;68379;47.190;27.558;2023-08-20T08:38:06;100128.20;;;31.25;40.71
78841;BME280;68379;47.190;27.558;2023-08-20T08:40:40;100131.84;;;31.32;40.42
78841;BME280;68379;47.190;27.558;2023-08-20T08:43:15;100127.86;;;31.41;39.88
78841;BME280;68379;47.190;27.558;2023-08-20T08:45:48;100122.11;;;31.51;39.65
78841;BME280;68379;47.190;27.558;2023-08-20T08:48:21;100127.84;;;31.61;39.70
78841;BME280;68379;47.190;27.558;2023-08-20T08:50:51;100126.70;;;31.71;39.25
78841;BME280;68379;47.190;27.558;2023-08-20T08:53:25;100121.59;;;31.76;39.15
78841;BME280;68379;47.190;27.558;2023-08-20T08:55:57;100117.36;;;31.89;39.14
78841;BME280;68379;47.190;27.558;2023-08-20T08:58:29;100115.21;;;32.02;38.52
78841;BME280;68379;47.190;27.558;2023-08-20T09:01:01;100116.35;;;32.13;38.74
78841;BME280;68379;47.190;27.558;2023-08-20T09:03:34;100114.62;;;32.13;38.06
78841;BME280;68379;47.190;27.558;2023-08-20T09:06:11;100108.73;;;32.06;37.77
78841;BME280;68379;47.190;27.558;2023-08-20T09:08:42;100104.46;;;32.09;37.93
78841;BME280;68379;47.190;27.558;2023-08-20T09:11:14;100101.56;;;32.23;37.93
78841;BME280;68379;47.190;27.558;2023-08-20T09:13:46;100097.20;;;32.37;36.93
78841;BME280;68379;47.190;27.558;2023-08-20T09:16:18;100096.98;;;32.53;36.24
78841;BME280;68379;47.190;27.558;2023-08-20T09:18:50;100093.25;;;32.65;35.13
78841;BME280;68379;47.190;27.558;2023-08-20T09:21:28;100092.61;;;32.71;35.22
78841;BME280;68379;47.190;27.558;2023-08-20T09:24:03;100088.92;;;32.84;35.23
78841;BME280;68379;47.190;27.558;2023-08-20T09:26:36;100089.46;;;32.99;34.92
78841;BME280;68379;47.190;27.558;2023-08-20T09:29:07;100089.84;;;33.09;34.61
78841;BME280;68379;47.190;27.558;2023-08-20T09:31:42;100089.98;;;33.05;33.61
78841;BME280;68379;47.190;27.558;2023-08-20T09:34:17;100089.38;;;33.08;34.15
78841;BME280;68379;47.190;27.558;2023-08-20T09:36:49;100084.96;;;33.23;33.85
78841;BME280;68379;47.190;27.558;2023-08-20T09:39:20;100087.17;;;33.35;33.85
78841;BME280;68379;47.190;27.558;2023-08-20T09:41:52;100087.91;;;33.55;33.83
78841;BME280;68379;47.190;27.558;2023-08-20T09:44:25;100088.61;;;33.78;33.85
78841;BME280;68379;47.190;27.558;2023-08-20T09:47:00;100086.57;;;33.86;33.27
78841;BME280;68379;47.190;27.558;2023-08-20T09:49:36;100084.94;;;33.93;32.87
78841;BME280;68379;47.190;27.558;2023-08-20T09:52:09;100079.27;;;34.02;32.41
78841;BME280;68379;47.190;27.558;2023-08-20T09:54:59;100079.27;;;34.16;32.60
78841;BME280;68379;47.190;27.558;2023-08-20T09:57:35;100083.18;;;34.24;32.50
78841;BME280;68379;47.190;27.558;2023-08-20T10:00:10;100080.48;;;34.08;32.43
78841;BME280;68379;47.190;27.558;2023-08-20T10:02:42;100081.48;;;33.93;31.74
78841;BME280;68379;47.190;27.558;2023-08-20T10:05:13;100079.09;;;33.65;31.81
78841;BME280;68379;47.190;27.558;2023-08-20T10:07:47;100073.77;;;33.50;32.54
78841;BME280;68379;47.190;27.558;2023-08-20T10:10:19;100077.86;;;33.39;33.02
78841;BME280;68379;47.190;27.558;2023-08-20T10:12:51;100079.23;;;33.27;33.01
78841;BME280;68379;47.190;27.558;2023-08-20T10:15:23;100075.85;;;33.26;32.84
78841;BME280;68379;47.190;27.558;2023-08-20T10:17:58;100074.94;;;33.40;32.30
78841;BME280;68379;47.190;27.558;2023-08-20T10:20:31;100074.04;;;33.59;31.62
78841;BME280;68379;47.190;27.558;2023-08-20T10:23:04;100071.07;;;33.92;31.82
78841;BME280;68379;47.190;27.558;2023-08-20T10:25:42;100068.63;;;34.33;31.34
78841;BME280;68379;47.190;27.558;2023-08-20T10:28:23;100071.16;;;34.71;30.62
78841;BME280;68379;47.190;27.558;2023-08-20T10:31:09;100068.45;;;34.99;30.19
78841;BME280;68379;47.190;27.558;2023-08-20T10:33:50;100066.41;;;35.17;29.15
78841;BME280;68379;47.190;27.558;2023-08-20T10:36:26;100066.05;;;35.37;29.31
78841;BME280;68379;47.190;27.558;2023-08-20T10:39:05;100061.66;;;35.54;29.14
78841;BME280;68379;47.190;27.558;2023-08-20T10:42:10;100064.05;;;35.65;28.85
78841;BME280;68379;47.190;27.558;2023-08-20T10:45:08;100057.59;;;35.79;28.76
78841;BME280;68379;47.190;27.558;2023-08-20T10:47:45;100053.60;;;35.86;28.74
78841;BME280;68379;47.190;27.558;2023-08-20T10:50:19;100049.39;;;35.71;28.62
78841;BME280;68379;47.190;27.558;2023-08-20T10:52:54;100049.86;;;35.79;28.64
78841;BME280;68379;47.190;27.558;2023-08-20T10:55:27;100049.02;;;36.01;28.40
78841;BME280;68379;47.190;27.558;2023-08-20T10:57:59;100046.48;;;35.99;27.65
78841;BME280;68379;47.190;27.558;2023-08-20T11:00:33;100043.24;;;35.86;27.35
78841;BME280;68379;47.190;27.558;2023-08-20T11:03:07;100045.34;;;35.75;27.12
78841;BME280;68379;47.190;27.558;2023-08-20T11:05:39;100042.05;;;35.81;26.91
78841;BME280;68379;47.190;27.558;2023-08-20T11:08:11;100040.73;;;35.87;26.61
78841;BME280;68379;47.190;27.558;2023-08-20T11:10:44;100042.27;;;35.93;26.53
78841;BME280;68379;47.190;27.558;2023-08-20T11:13:16;100034.94;;;35.91;26.81
78841;BME280;68379;47.190;27.558;2023-08-20T11:15:48;100027.92;;;36.02;26.39
78841;BME280;68379;47.190;27.558;2023-08-20T11:18:20;100024.98;;;36.08;26.28
78841;BME280;68379;47.190;27.558;2023-08-20T11:20:51;100021.09;;;36.21;26.35
78841;BME280;68379;47.190;27.558;2023-08-20T11:23:23;100017.33;;;36.32;26.24
78841;BME280;68379;47.190;27.558;2023-08-20T11:25:56;100013.60;;;36.40;26.03
78841;BME280;68379;47.190;27.558;2023-08-20T11:28:26;100018.60;;;36.56;26.27
78841;BME280;68379;47.190;27.558;2023-08-20T11:30:56;100017.14;;;36.72;26.12
78841;BME280;68379;47.190;27.558;2023-08-20T11:33:28;100015.25;;;36.75;25.44
78841;BME280;68379;47.190;27.558;2023-08-20T11:36:00;100015.52;;;36.86;25.77
78841;BME280;68379;47.190;27.558;2023-08-20T11:38:32;100013.99;;;36.93;25.98
78841;BME280;68379;47.190;27.558;2023-08-20T11:41:04;100012.36;;;36.99;25.17
78841;BME280;68379;47.190;27.558;2023-08-20T11:43:36;100009.84;;;37.13;25.52
78841;BME280;68379;47.190;27.558;2023-08-20T11:46:14;100004.76;;;37.37;25.58
78841;BME280;68379;47.190;27.558;2023-08-20T11:49:00;100001.79;;;37.60;25.95
78841;BME280;68379;47.190;27.558;2023-08-20T11:51:37;100004.15;;;37.61;25.64
78841;BME280;68379;47.190;27.558;2023-08-20T11:54:10;100004.36;;;37.59;25.11
78841;BME280;68379;47.190;27.558;2023-08-20T11:56:44;99999.79;;;37.55;25.18
78841;BME280;68379;47.190;27.558;2023-08-20T11:59:17;99992.96;;;37.65;24.98
78841;BME280;68379;47.190;27.558;2023-08-20T12:01:54;99994.30;;;37.86;25.04
78841;BME280;68379;47.190;27.558;2023-08-20T12:04:27;99991.58;;;37.96;24.45
78841;BME280;68379;47.190;27.558;2023-08-20T12:07:14;99982.49;;;38.11;24.23
78841;BME280;68379;47.190;27.558;2023-08-20T12:09:47;99978.74;;;38.16;24.35
78841;BME280;68379;47.190;27.558;2023-08-20T12:12:21;99978.25;;;37.98;24.17
78841;BME280;68379;47.190;27.558;2023-08-20T12:14:52;99975.21;;;37.65;23.66
78841;BME280;68379;47.190;27.558;2023-08-20T12:17:24;99973.67;;;37.63;23.48
78841;BME280;68379;47.190;27.558;2023-08-20T12:19:57;99971.66;;;37.81;23.63
78841;BME280;68379;47.190;27.558;2023-08-20T12:22:29;99969.92;;;37.89;23.64
78841;BME280;68379;47.190;27.558;2023-08-20T12:25:01;99972.79;;;37.96;23.54
78841;BME280;68379;47.190;27.558;2023-08-20T12:27:33;99972.46;;;38.22;22.96
78841;BME280;68379;47.190;27.558;2023-08-20T12:30:08;99967.81;;;38.51;23.01
78841;BME280;68379;47.190;27.558;2023-08-20T12:32:40;99967.46;;;38.79;23.11
78841;BME280;68379;47.190;27.558;2023-08-20T12:35:12;99964.17;;;38.91;21.98
78841;BME280;68379;47.190;27.558;2023-08-20T12:37:44;99962.52;;;38.99;22.24
78841;BME280;68379;47.190;27.558;2023-08-20T12:40:16;99965.98;;;39.01;22.11
78841;BME280;68379;47.190;27.558;2023-08-20T12:42:48;99962.26;;;39.12;21.97
78841;BME280;68379;47.190;27.558;2023-08-20T12:45:20;99956.77;;;39.29;21.57
78841;BME280;68379;47.190;27.558;2023-08-20T12:47:51;99960.05;;;39.29;21.36
78841;BME280;68379;47.190;27.558;2023-08-20T12:50:25;99958.47;;;39.14;21.30
78841;BME280;68379;47.190;27.558;2023-08-20T12:52:57;99955.65;;;38.91;21.20
78841;BME280;68379;47.190;27.558;2023-08-20T12:55:29;99952.68;;;38.68;21.03
78841;BME280;68379;47.190;27.558;2023-08-20T12:58:01;99950.55;;;38.54;21.32
78841;BME280;68379;47.190;27.558;2023-08-20T13:00:32;99946.63;;;38.52;21.34
78841;BME280;68379;47.190;27.558;2023-08-20T13:03:06;99944.28;;;38.45;21.40
78841;BME280;68379;47.190;27.558;2023-08-20T13:05:39;99945.51;;;38.22;21.17
78841;BME280;68379;47.190;27.558;2023-08-20T13:08:13;99942.42;;;38.18;21.37
78841;BME280;68379;47.190;27.558;2023-08-20T13:10:48;99941.15;;;38.50;21.50